Terminal Aerodrome Forecast
Issued by NWS Cleveland, OH

Home | Current Version | Previous Version | Graphics & Text | Print | Product List | Glossary On
Versions: 1 2 3 4 5 6 7 8 9 10 11 12 13 14 15 16 17 18 19 20 21 22
771
FTUS41 KCLE 231733
TAFTOL
TAF
KTOL 231733Z 2318/2418 24010KT P6SM SCT015
     FM232300 02006KT P6SM OVC050
     FM240400 09005KT 4SM -DZ BR OVC012
     FM241100 18006KT 4SM BR OVC007
     FM241500 20010G15KT P6SM OVC035=

USA.gov is the U.S. government's official web portal to all federal, state and local government web resources and services.